VOZ1864 YPKG-YPPH
Flight info
| Callsign | VOZ1864 |
|---|---|
| Flight time | 0h 57m |
| Altitude | 34000 |
| Route | KG Q41 MALUP Q158 PH |
| Aircraft | A320/M-SDE3FGHIRWY/LB1 |
Departure
| Time | 2026-04-26 12:02 |
|---|---|
| Airport | Kalgoorlie Boulder Airport (YPKG) |
Arrival
| Time | 2026-04-26 12:59 |
|---|---|
| Airport | Perth International Airport (YPPH) |
| Time | Latitude | Longitude | Altitude | Speed | Heading |
|---|---|---|---|---|---|
| 2026-04-26 11:42 | -30.78573 | 121.45743 | 1212 ft | 0 kts | 56° |
| 2026-04-26 11:58 | -30.78573 | 121.45757 | 1212 ft | 3 kts | 96° |
| 2026-04-26 11:59 | -30.78597 | 121.45773 | 1212 ft | 5 kts | 162° |
| 2026-04-26 11:59 | -30.78644 | 121.45792 | 1212 ft | 8 kts | 158° |
| 2026-04-26 11:59 | -30.78706 | 121.45782 | 1212 ft | 10 kts | 200° |
| 2026-04-26 11:59 | -30.78779 | 121.45750 | 1212 ft | 12 kts | 200° |
| 2026-04-26 12:00 | -30.78862 | 121.45714 | 1213 ft | 12 kts | 201° |
| 2026-04-26 12:00 | -30.78882 | 121.45636 | 1214 ft | 12 kts | 290° |
| 2026-04-26 12:00 | -30.78852 | 121.45535 | 1214 ft | 13 kts | 277° |
| 2026-04-26 12:00 | -30.78851 | 121.45472 | 1214 ft | 7 kts | 301° |
| 2026-04-26 12:01 | -30.78834 | 121.45488 | 1214 ft | 5 kts | 111° |
| 2026-04-26 12:01 | -30.78879 | 121.45626 | 1214 ft | 50 kts | 110° |
| 2026-04-26 12:01 | -30.79086 | 121.46264 | 1212 ft | 115 kts | 110° |
| 2026-04-26 12:01 | -30.79421 | 121.47305 | 1363 ft | 148 kts | 108° |
| 2026-04-26 12:02 | -30.79773 | 121.48414 | 2038 ft | 145 kts | 108° |
| 2026-04-26 12:02 | -30.80128 | 121.49519 | 2623 ft | 147 kts | 105° |
| 2026-04-26 12:02 | -30.80623 | 121.50602 | 3013 ft | 168 kts | 135° |
| 2026-04-26 12:02 | -30.81789 | 121.51120 | 3295 ft | 198 kts | 176° |
| 2026-04-26 12:03 | -30.83158 | 121.50553 | 3519 ft | 229 kts | 223° |
| 2026-04-26 12:03 | -30.84181 | 121.49033 | 3933 ft | 249 kts | 239° |
| 2026-04-26 12:03 | -30.85046 | 121.47195 | 4438 ft | 269 kts | 245° |
| 2026-04-26 12:03 | -30.85927 | 121.45204 | 5130 ft | 282 kts | 243° |
| 2026-04-26 12:04 | -30.86850 | 121.43181 | 6086 ft | 283 kts | 243° |
| 2026-04-26 12:04 | -30.87778 | 121.41173 | 7123 ft | 280 kts | 243° |
| 2026-04-26 12:04 | -30.88701 | 121.39176 | 8059 ft | 280 kts | 243° |
| 2026-04-26 12:04 | -30.89616 | 121.37189 | 8945 ft | 283 kts | 243° |
| 2026-04-26 12:05 | -30.90547 | 121.35165 | 9815 ft | 285 kts | 243° |
| 2026-04-26 12:05 | -30.91493 | 121.33099 | 10422 ft | 297 kts | 243° |
| 2026-04-26 12:05 | -30.92499 | 121.30891 | 10683 ft | 319 kts | 243° |
| 2026-04-26 12:05 | -30.93556 | 121.28566 | 11207 ft | 328 kts | 243° |
| 2026-04-26 12:06 | -30.94633 | 121.26197 | 11848 ft | 334 kts | 243° |
| 2026-04-26 12:06 | -30.95732 | 121.23785 | 12501 ft | 339 kts | 244° |
| 2026-04-26 12:06 | -30.96847 | 121.21336 | 13163 ft | 344 kts | 244° |
| 2026-04-26 12:06 | -30.97974 | 121.18854 | 13817 ft | 349 kts | 244° |
| 2026-04-26 12:07 | -30.99116 | 121.16336 | 14410 ft | 354 kts | 244° |
| 2026-04-26 12:07 | -31.00272 | 121.13790 | 15030 ft | 356 kts | 244° |
| 2026-04-26 12:07 | -31.01436 | 121.11230 | 15660 ft | 359 kts | 244° |
| 2026-04-26 12:07 | -31.02604 | 121.08652 | 16291 ft | 361 kts | 243° |
| 2026-04-26 12:08 | -31.03778 | 121.06058 | 16915 ft | 363 kts | 243° |
| 2026-04-26 12:08 | -31.04962 | 121.03443 | 17548 ft | 365 kts | 243° |
| 2026-04-26 12:08 | -31.06152 | 121.00814 | 18180 ft | 368 kts | 243° |
| 2026-04-26 12:08 | -31.07352 | 120.98162 | 18766 ft | 370 kts | 243° |
| 2026-04-26 12:09 | -31.08557 | 120.95494 | 19323 ft | 372 kts | 243° |
| 2026-04-26 12:09 | -31.09762 | 120.92819 | 19924 ft | 373 kts | 244° |
| 2026-04-26 12:09 | -31.10971 | 120.90132 | 20512 ft | 375 kts | 244° |
| 2026-04-26 12:09 | -31.12171 | 120.87468 | 21074 ft | 377 kts | 244° |
| 2026-04-26 12:10 | -31.13396 | 120.84750 | 21631 ft | 379 kts | 244° |
| 2026-04-26 12:10 | -31.14625 | 120.82020 | 22186 ft | 381 kts | 244° |
| 2026-04-26 12:10 | -31.15861 | 120.79274 | 22727 ft | 383 kts | 244° |
| 2026-04-26 12:10 | -31.17103 | 120.76512 | 23284 ft | 386 kts | 244° |
| 2026-04-26 12:11 | -31.18354 | 120.73728 | 23816 ft | 388 kts | 244° |
| 2026-04-26 12:11 | -31.19607 | 120.70929 | 24253 ft | 390 kts | 244° |
| 2026-04-26 12:11 | -31.20867 | 120.68108 | 24690 ft | 392 kts | 244° |
| 2026-04-26 12:11 | -31.22131 | 120.65276 | 25117 ft | 394 kts | 244° |
| 2026-04-26 12:12 | -31.23410 | 120.62420 | 25534 ft | 397 kts | 244° |
| 2026-04-26 12:12 | -31.24692 | 120.59557 | 25956 ft | 399 kts | 245° |
| 2026-04-26 12:12 | -31.25982 | 120.56674 | 26373 ft | 401 kts | 245° |
| 2026-04-26 12:12 | -31.26839 | 120.54758 | 26645 ft | 403 kts | 245° |
| 2026-04-26 12:13 | -31.28580 | 120.50860 | 27190 ft | 405 kts | 245° |
| 2026-04-26 12:13 | -31.29883 | 120.47928 | 27584 ft | 408 kts | 245° |
| 2026-04-26 12:13 | -31.31188 | 120.44976 | 27975 ft | 410 kts | 246° |
| 2026-04-26 12:13 | -31.32428 | 120.41964 | 28368 ft | 411 kts | 248° |
| 2026-04-26 12:14 | -31.33603 | 120.38906 | 28759 ft | 413 kts | 249° |
| 2026-04-26 12:14 | -31.34748 | 120.35806 | 29127 ft | 416 kts | 249° |
| 2026-04-26 12:14 | -31.35887 | 120.32687 | 29505 ft | 418 kts | 249° |
| 2026-04-26 12:14 | -31.37040 | 120.29546 | 29884 ft | 421 kts | 249° |
| 2026-04-26 12:15 | -31.38212 | 120.26400 | 30249 ft | 423 kts | 249° |
| 2026-04-26 12:15 | -31.39406 | 120.23239 | 30584 ft | 425 kts | 249° |
| 2026-04-26 12:15 | -31.40591 | 120.20121 | 30941 ft | 425 kts | 249° |
| 2026-04-26 12:15 | -31.41796 | 120.16953 | 31313 ft | 425 kts | 249° |
| 2026-04-26 12:16 | -31.42994 | 120.13795 | 31716 ft | 424 kts | 249° |
| 2026-04-26 12:16 | -31.44185 | 120.10649 | 32280 ft | 420 kts | 249° |
| 2026-04-26 12:16 | -31.45360 | 120.07537 | 32847 ft | 415 kts | 249° |
| 2026-04-26 12:16 | -31.46516 | 120.04461 | 33411 ft | 410 kts | 249° |
| 2026-04-26 12:17 | -31.47658 | 120.01418 | 33964 ft | 407 kts | 249° |
| 2026-04-26 12:17 | -31.48796 | 119.98393 | 34156 ft | 404 kts | 249° |
| 2026-04-26 12:17 | -31.49918 | 119.95422 | 34195 ft | 395 kts | 249° |
| 2026-04-26 12:18 | -31.52108 | 119.89587 | 34192 ft | 389 kts | 250° |
| 2026-04-26 12:18 | -31.54277 | 119.83775 | 34192 ft | 389 kts | 250° |
| 2026-04-26 12:19 | -31.56462 | 119.77908 | 34192 ft | 400 kts | 250° |
| 2026-04-26 12:19 | -31.58724 | 119.71839 | 34191 ft | 409 kts | 250° |
| 2026-04-26 12:20 | -31.61015 | 119.65723 | 34190 ft | 410 kts | 250° |
| 2026-04-26 12:20 | -31.63289 | 119.59638 | 34187 ft | 410 kts | 250° |
| 2026-04-26 12:21 | -31.65571 | 119.53500 | 34194 ft | 410 kts | 250° |
| 2026-04-26 12:21 | -31.67844 | 119.47354 | 34188 ft | 411 kts | 250° |
| 2026-04-26 12:22 | -31.70121 | 119.41191 | 34186 ft | 411 kts | 250° |
| 2026-04-26 12:22 | -31.72395 | 119.35028 | 34182 ft | 412 kts | 250° |
| 2026-04-26 12:23 | -31.74674 | 119.28854 | 34188 ft | 412 kts | 250° |
| 2026-04-26 12:23 | -31.76950 | 119.22674 | 34182 ft | 412 kts | 250° |
| 2026-04-26 12:24 | -31.79225 | 119.16478 | 34172 ft | 413 kts | 250° |
| 2026-04-26 12:24 | -31.81502 | 119.10277 | 34167 ft | 414 kts | 250° |
| 2026-04-26 12:25 | -31.84908 | 119.00984 | 34167 ft | 414 kts | 250° |
| 2026-04-26 12:25 | -31.87181 | 118.94755 | 34179 ft | 414 kts | 250° |
| 2026-04-26 12:26 | -31.89448 | 118.88512 | 34174 ft | 415 kts | 250° |
| 2026-04-26 12:26 | -31.91725 | 118.82255 | 34171 ft | 416 kts | 250° |
| 2026-04-26 12:27 | -31.94004 | 118.75996 | 34166 ft | 416 kts | 250° |
| 2026-04-26 12:27 | -31.96264 | 118.69763 | 34167 ft | 416 kts | 250° |
| 2026-04-26 12:28 | -31.98534 | 118.63486 | 34168 ft | 416 kts | 251° |
| 2026-04-26 12:28 | -32.00416 | 118.58262 | 34165 ft | 417 kts | 251° |
| 2026-04-26 12:29 | -32.03066 | 118.50904 | 34161 ft | 417 kts | 251° |
| 2026-04-26 12:30 | -32.06080 | 118.42519 | 34159 ft | 417 kts | 251° |
| 2026-04-26 12:30 | -32.08391 | 118.36239 | 34170 ft | 418 kts | 250° |
| 2026-04-26 12:31 | -32.12151 | 118.26921 | 34161 ft | 420 kts | 249° |
| 2026-04-26 12:31 | -32.13400 | 118.23855 | 34153 ft | 408 kts | 249° |
| 2026-04-26 12:31 | -32.14596 | 118.20896 | 34157 ft | 402 kts | 249° |
| 2026-04-26 12:32 | -32.16961 | 118.14954 | 34061 ft | 396 kts | 249° |
| 2026-04-26 12:32 | -32.19238 | 118.09199 | 33195 ft | 380 kts | 249° |
| 2026-04-26 12:33 | -32.20351 | 118.06380 | 32790 ft | 377 kts | 249° |
| 2026-04-26 12:33 | -32.21456 | 118.03582 | 32354 ft | 374 kts | 249° |
| 2026-04-26 12:33 | -32.22553 | 118.00803 | 31943 ft | 373 kts | 249° |
| 2026-04-26 12:33 | -32.23642 | 117.98036 | 31540 ft | 371 kts | 249° |
| 2026-04-26 12:34 | -32.24730 | 117.95273 | 31135 ft | 370 kts | 249° |
| 2026-04-26 12:34 | -32.25816 | 117.92519 | 30757 ft | 369 kts | 249° |
| 2026-04-26 12:34 | -32.26896 | 117.89774 | 30358 ft | 368 kts | 249° |
| 2026-04-26 12:34 | -32.27974 | 117.87030 | 29935 ft | 368 kts | 249° |
| 2026-04-26 12:35 | -32.29048 | 117.84298 | 29556 ft | 366 kts | 249° |
| 2026-04-26 12:35 | -32.30111 | 117.81608 | 29177 ft | 364 kts | 249° |
| 2026-04-26 12:35 | -32.31178 | 117.78908 | 28827 ft | 361 kts | 249° |
| 2026-04-26 12:35 | -32.32237 | 117.76221 | 28466 ft | 359 kts | 249° |
| 2026-04-26 12:36 | -32.33283 | 117.73556 | 28104 ft | 356 kts | 249° |
| 2026-04-26 12:36 | -32.34317 | 117.70908 | 27743 ft | 354 kts | 249° |
| 2026-04-26 12:36 | -32.35200 | 117.68218 | 27386 ft | 347 kts | 258° |
| 2026-04-26 12:36 | -32.35613 | 117.65436 | 27021 ft | 341 kts | 269° |
| 2026-04-26 12:37 | -32.35551 | 117.62650 | 26642 ft | 337 kts | 279° |
| 2026-04-26 12:37 | -32.35039 | 117.59969 | 26284 ft | 333 kts | 287° |
| 2026-04-26 12:37 | -32.34396 | 117.57346 | 25905 ft | 331 kts | 287° |
| 2026-04-26 12:37 | -32.33772 | 117.54762 | 25532 ft | 330 kts | 287° |
| 2026-04-26 12:38 | -32.33145 | 117.52104 | 25199 ft | 335 kts | 286° |
| 2026-04-26 12:38 | -32.32515 | 117.49452 | 24968 ft | 342 kts | 286° |
| 2026-04-26 12:38 | -32.31863 | 117.46740 | 24740 ft | 343 kts | 287° |
| 2026-04-26 12:38 | -32.31211 | 117.44025 | 24520 ft | 342 kts | 287° |
| 2026-04-26 12:39 | -32.30558 | 117.41321 | 24405 ft | 342 kts | 287° |
| 2026-04-26 12:39 | -32.29906 | 117.38624 | 24283 ft | 342 kts | 287° |
| 2026-04-26 12:39 | -32.29253 | 117.35919 | 24054 ft | 341 kts | 287° |
| 2026-04-26 12:39 | -32.28609 | 117.33246 | 23790 ft | 336 kts | 287° |
| 2026-04-26 12:40 | -32.27969 | 117.30595 | 23369 ft | 334 kts | 287° |
| 2026-04-26 12:40 | -32.27333 | 117.27966 | 22977 ft | 331 kts | 287° |
| 2026-04-26 12:40 | -32.26701 | 117.25362 | 22589 ft | 329 kts | 287° |
| 2026-04-26 12:40 | -32.26073 | 117.22777 | 22204 ft | 326 kts | 287° |
| 2026-04-26 12:41 | -32.25448 | 117.20211 | 21826 ft | 324 kts | 287° |
| 2026-04-26 12:41 | -32.24824 | 117.17660 | 21435 ft | 322 kts | 287° |
| 2026-04-26 12:41 | -32.24203 | 117.15115 | 21057 ft | 321 kts | 287° |
| 2026-04-26 12:41 | -32.23588 | 117.12589 | 20663 ft | 319 kts | 287° |
| 2026-04-26 12:42 | -32.22976 | 117.10075 | 20293 ft | 318 kts | 287° |
| 2026-04-26 12:42 | -32.22366 | 117.07571 | 19915 ft | 317 kts | 287° |
| 2026-04-26 12:42 | -32.21763 | 117.05105 | 19545 ft | 316 kts | 287° |
| 2026-04-26 12:42 | -32.21155 | 117.02615 | 19163 ft | 315 kts | 287° |
| 2026-04-26 12:43 | -32.20540 | 117.00098 | 18781 ft | 315 kts | 287° |
| 2026-04-26 12:43 | -32.19940 | 116.97651 | 18397 ft | 314 kts | 288° |
| 2026-04-26 12:43 | -32.19332 | 116.95176 | 17981 ft | 313 kts | 288° |
| 2026-04-26 12:43 | -32.18726 | 116.92709 | 17593 ft | 312 kts | 288° |
| 2026-04-26 12:44 | -32.17998 | 116.90315 | 17207 ft | 309 kts | 297° |
| 2026-04-26 12:44 | -32.16863 | 116.88183 | 16827 ft | 306 kts | 308° |
| 2026-04-26 12:44 | -32.15547 | 116.86209 | 16452 ft | 305 kts | 308° |
| 2026-04-26 12:44 | -32.14238 | 116.84242 | 16070 ft | 304 kts | 308° |
| 2026-04-26 12:45 | -32.12937 | 116.82283 | 15693 ft | 303 kts | 308° |
| 2026-04-26 12:45 | -32.11642 | 116.80325 | 15315 ft | 302 kts | 308° |
| 2026-04-26 12:45 | -32.10353 | 116.78377 | 14941 ft | 301 kts | 308° |
| 2026-04-26 12:45 | -32.09066 | 116.76432 | 14561 ft | 299 kts | 308° |
| 2026-04-26 12:46 | -32.07801 | 116.74521 | 14199 ft | 293 kts | 308° |
| 2026-04-26 12:46 | -32.06557 | 116.72647 | 13822 ft | 288 kts | 308° |
| 2026-04-26 12:46 | -32.05334 | 116.70809 | 13439 ft | 283 kts | 308° |
| 2026-04-26 12:46 | -32.04120 | 116.68988 | 13076 ft | 282 kts | 308° |
| 2026-04-26 12:47 | -32.02909 | 116.67170 | 12718 ft | 281 kts | 308° |
| 2026-04-26 12:47 | -32.01702 | 116.65360 | 12353 ft | 280 kts | 308° |
| 2026-04-26 12:47 | -32.00498 | 116.63551 | 11993 ft | 280 kts | 307° |
| 2026-04-26 12:47 | -31.99301 | 116.61751 | 11637 ft | 279 kts | 307° |
| 2026-04-26 12:48 | -31.98102 | 116.59948 | 11273 ft | 279 kts | 307° |
| 2026-04-26 12:48 | -31.96905 | 116.58150 | 10914 ft | 278 kts | 307° |
| 2026-04-26 12:48 | -31.95719 | 116.56369 | 10555 ft | 273 kts | 307° |
| 2026-04-26 12:48 | -31.94561 | 116.54596 | 10123 ft | 272 kts | 303° |
| 2026-04-26 12:49 | -31.93599 | 116.52731 | 9723 ft | 267 kts | 301° |
| 2026-04-26 12:49 | -31.92652 | 116.50869 | 9387 ft | 264 kts | 301° |
| 2026-04-26 12:49 | -31.91707 | 116.49016 | 9038 ft | 264 kts | 301° |
| 2026-04-26 12:49 | -31.90760 | 116.47165 | 8695 ft | 263 kts | 301° |
| 2026-04-26 12:50 | -31.89814 | 116.45322 | 8355 ft | 263 kts | 301° |
| 2026-04-26 12:50 | -31.88867 | 116.43483 | 8019 ft | 263 kts | 301° |
| 2026-04-26 12:50 | -31.87923 | 116.41647 | 7681 ft | 262 kts | 301° |
| 2026-04-26 12:50 | -31.86981 | 116.39810 | 7349 ft | 262 kts | 301° |
| 2026-04-26 12:51 | -31.86039 | 116.37971 | 7011 ft | 262 kts | 302° |
| 2026-04-26 12:51 | -31.85092 | 116.36124 | 6705 ft | 264 kts | 302° |
| 2026-04-26 12:51 | -31.84145 | 116.34278 | 6375 ft | 263 kts | 302° |
| 2026-04-26 12:51 | -31.83201 | 116.32439 | 6076 ft | 262 kts | 302° |
| 2026-04-26 12:52 | -31.82261 | 116.30606 | 5780 ft | 261 kts | 302° |
| 2026-04-26 12:52 | -31.81333 | 116.28798 | 5551 ft | 250 kts | 303° |
| 2026-04-26 12:52 | -31.80453 | 116.27081 | 5203 ft | 243 kts | 303° |
| 2026-04-26 12:52 | -31.79593 | 116.25403 | 5111 ft | 239 kts | 301° |
| 2026-04-26 12:53 | -31.78986 | 116.23558 | 4843 ft | 241 kts | 288° |
| 2026-04-26 12:53 | -31.78550 | 116.21653 | 4600 ft | 241 kts | 288° |
| 2026-04-26 12:53 | -31.78108 | 116.19753 | 4357 ft | 242 kts | 288° |
| 2026-04-26 12:53 | -31.77667 | 116.17865 | 4138 ft | 243 kts | 289° |
| 2026-04-26 12:54 | -31.77217 | 116.15946 | 3910 ft | 244 kts | 289° |
| 2026-04-26 12:54 | -31.76767 | 116.14026 | 3708 ft | 244 kts | 288° |
| 2026-04-26 12:54 | -31.76317 | 116.12101 | 3516 ft | 243 kts | 288° |
| 2026-04-26 12:54 | -31.75880 | 116.10224 | 3373 ft | 233 kts | 289° |
| 2026-04-26 12:55 | -31.75696 | 116.08392 | 3280 ft | 225 kts | 268° |
| 2026-04-26 12:55 | -31.76135 | 116.06631 | 3198 ft | 227 kts | 242° |
| 2026-04-26 12:55 | -31.77059 | 116.05118 | 3098 ft | 229 kts | 234° |
| 2026-04-26 12:55 | -31.78023 | 116.03639 | 3001 ft | 226 kts | 234° |
| 2026-04-26 12:56 | -31.78956 | 116.02203 | 2876 ft | 217 kts | 233° |
| 2026-04-26 12:56 | -31.79981 | 116.00925 | 2593 ft | 213 kts | 213° |
| 2026-04-26 12:56 | -31.81301 | 116.00203 | 2342 ft | 209 kts | 191° |
| 2026-04-26 12:56 | -31.82688 | 115.99802 | 2094 ft | 201 kts | 190° |
| 2026-04-26 12:57 | -31.83999 | 115.99421 | 1810 ft | 186 kts | 189° |
| 2026-04-26 12:57 | -31.85211 | 115.99068 | 1564 ft | 172 kts | 189° |
| 2026-04-26 12:57 | -31.86329 | 115.98745 | 1341 ft | 160 kts | 190° |
| 2026-04-26 12:58 | -31.88321 | 115.98171 | 888 ft | 140 kts | 192° |
| 2026-04-26 12:58 | -31.89251 | 115.97899 | 669 ft | 137 kts | 194° |
| 2026-04-26 12:58 | -31.90170 | 115.97628 | 514 ft | 137 kts | 194° |
| 2026-04-26 12:58 | -31.91092 | 115.97363 | 380 ft | 137 kts | 194° |
| 2026-04-26 12:59 | -31.92005 | 115.97093 | 223 ft | 137 kts | 194° |
| 2026-04-26 12:59 | -31.92932 | 115.96826 | 98 ft | 137 kts | 193° |
| 2026-04-26 12:59 | -31.93758 | 115.96584 | 65 ft | 96 kts | 194° |
| 2026-04-26 12:59 | -31.94208 | 115.96453 | 67 ft | 36 kts | 194° |
| 2026-04-26 13:00 | -31.94350 | 115.96413 | 69 ft | 19 kts | 193° |
| 2026-04-26 13:00 | -31.94451 | 115.96444 | 69 ft | 16 kts | 138° |
| 2026-04-26 13:00 | -31.94480 | 115.96531 | 61 ft | 10 kts | 102° |
| 2026-04-26 13:00 | -31.94500 | 115.96625 | 68 ft | 13 kts | 104° |
| 2026-04-26 13:01 | -31.94491 | 115.96719 | 61 ft | 13 kts | 45° |
| 2026-04-26 13:01 | -31.94398 | 115.96750 | 65 ft | 15 kts | 15° |
| 2026-04-26 13:01 | -31.94286 | 115.96782 | 66 ft | 15 kts | 13° |
| 2026-04-26 13:01 | -31.94202 | 115.96814 | 68 ft | 13 kts | 38° |
| 2026-04-26 13:02 | -31.94194 | 115.96901 | 63 ft | 6 kts | 83° |
| 2026-04-26 13:02 | -31.94157 | 115.96916 | 63 ft | 7 kts | 7° |
| 2026-04-26 13:02 | -31.94143 | 115.96918 | 66 ft | 3 kts | 6° |
| 2026-04-26 13:02 | -31.94132 | 115.96920 | 66 ft | 0 kts | 7° |